Terminal Aerodrome Forecast
Issued by NWS

Home | Current Version | Previous Version | Text Only | Print | Product List | Glossary On
Versions: 1 2 3 4 5 6 7 8 9 10 11 12
000
FTUS45 KREV 200531
TAFTVL
TAF
KTVL 200531Z 2006/2106 VRB04KT P6SM SCT070 BKN180
     FM201800 04008KT P6SM FEW060 SCT180
     FM202200 19008KT P6SM SCT060=

USA.gov is the U.S. government's official web portal to all federal, state and local government web resources and services.